Time;durP1;ratioP1;P1;durP2;ratioP2;P2;SDS_P1;SDS_P2;PMS_P1;PMS_P2;Temp;Humidity;BMP_temperature;BMP_pressure;BME280_temperature;BME280_humidity;BME280_pressure;Samples;Min_cycle;Max_cycle;Signal;HPM_P1;HPM_P2
2022/03/29 00:01:48;;;;;;;;;;;7.00;99.90;;;;;;5071527;28;20382;-76
2022/03/29 00:04:15;;;;;;;;;;;7.00;99.90;;;;;;5063742;28;19924;-76
2022/03/29 00:06:41;;;;;;;;;;;6.90;99.90;;;;;;5069028;28;19976;-76
2022/03/29 00:09:06;;;;;;;;;;;7.00;99.90;;;;;;5058242;28;20043;-76
2022/03/29 00:11:32;;;;;;;;;;;7.00;99.90;;;;;;5068646;28;19932;-76
2022/03/29 00:13:57;;;;;;;;;;;6.90;99.90;;;;;;5071543;28;19943;-76
2022/03/29 00:16:23;;;;;;;;;;;6.90;99.90;;;;;;5070125;28;20041;-76
2022/03/29 00:18:48;;;;;;;;;;;6.90;99.90;;;;;;5048315;28;19925;-76
2022/03/29 00:21:14;;;;;;;;;;;6.90;99.90;;;;;;5071237;28;19958;-76
2022/03/29 00:23:39;;;;;;;;;;;7.00;99.90;;;;;;5071473;28;20286;-76
2022/03/29 00:26:05;;;;;;;;;;;6.90;99.90;;;;;;5071084;28;19924;-76
2022/03/29 00:28:30;;;;;;;;;;;6.90;99.90;;;;;;5061972;28;19921;-76
2022/03/29 00:30:56;;;;;;;;;;;6.90;99.90;;;;;;5065124;28;20402;-76
2022/03/29 00:33:21;;;;;;;;;;;6.90;99.90;;;;;;5067578;28;19947;-76
2022/03/29 00:35:47;;;;;;;;;;;6.90;99.90;;;;;;5070799;28;19920;-76
2022/03/29 00:38:12;;;;;;;;;;;6.90;99.90;;;;;;5070446;28;20052;-76
2022/03/29 00:40:37;;;;;;;;;;;6.90;99.90;;;;;;5070845;28;20374;-76
2022/03/29 00:43:05;;;;;;;;;;;7.00;99.90;;;;;;5070967;28;19974;-76
2022/03/29 00:45:31;;;;;;;;;;;6.90;99.90;;;;;;5071030;28;19920;-76
2022/03/29 00:47:56;;;;;;;;;;;6.90;99.90;;;;;;5069826;28;19969;-76
2022/03/29 00:50:22;;;;;;;;;;;7.00;99.90;;;;;;5070935;28;19975;-76
2022/03/29 00:52:47;;;;;;;;;;;6.90;99.90;;;;;;5071041;28;19926;-76
2022/03/29 00:55:14;;;;;;;;;;;6.90;99.90;;;;;;5071120;28;19924;-76
2022/03/29 00:57:40;;;;;;;;;;;6.90;99.90;;;;;;5064930;28;19924;-76
2022/03/29 01:00:07;;;;;;;;;;;6.90;99.90;;;;;;5064494;28;19920;-76
2022/03/29 01:02:33;;;;;;;;;;;6.90;99.90;;;;;;5070898;28;19921;-76
2022/03/29 01:04:58;;;;;;;;;;;6.90;99.90;;;;;;5070365;28;20374;-76
2022/03/29 01:07:27;;;;;;;;;;;7.00;99.90;;;;;;5069275;28;19924;-76
2022/03/29 01:09:53;;;;;;;;;;;7.00;99.90;;;;;;5062783;28;19920;-76
2022/03/29 01:12:19;;;;;;;;;;;6.90;99.90;;;;;;5070635;28;19974;-76
2022/03/29 01:14:44;;;;;;;;;;;6.90;99.90;;;;;;5071027;28;19921;-76
2022/03/29 01:19:57;;;;;;;;;;;6.90;99.90;;;;;;5069265;28;19920;-76
2022/03/29 01:22:22;;;;;;;;;;;6.90;99.90;;;;;;5053631;28;19928;-76
2022/03/29 01:24:49;;;;;;;;;;;6.90;99.90;;;;;;5064037;28;19921;-76
2022/03/29 01:27:15;;;;;;;;;;;7.00;99.90;;;;;;5061178;28;19920;-76
2022/03/29 01:29:40;;;;;;;;;;;7.00;99.90;;;;;;5058866;28;20019;-76
2022/03/29 01:32:10;;;;;;;;;;;7.10;99.90;;;;;;5064278;28;19928;-76
2022/03/29 01:34:37;;;;;;;;;;;7.10;99.90;;;;;;5070506;28;19921;-76
2022/03/29 01:37:03;;;;;;;;;;;7.10;99.90;;;;;;5052546;28;20294;-76
2022/03/29 01:39:28;;;;;;;;;;;7.20;99.90;;;;;;5069964;28;20387;-76
2022/03/29 01:41:54;;;;;;;;;;;7.20;99.90;;;;;;5070169;28;19921;-76
2022/03/29 01:44:19;;;;;;;;;;;7.30;99.90;;;;;;5070509;28;20426;-76
2022/03/29 01:46:45;;;;;;;;;;;7.20;99.90;;;;;;5069336;28;19920;-76
2022/03/29 01:49:10;;;;;;;;;;;7.20;99.90;;;;;;5065842;28;20297;-76
2022/03/29 01:51:36;;;;;;;;;;;7.30;99.90;;;;;;5074148;28;19928;-77
2022/03/29 01:54:05;;;;;;;;;;;7.30;99.90;;;;;;5074665;28;19920;-76
2022/03/29 01:56:32;;;;;;;;;;;7.30;99.90;;;;;;5073264;28;19924;-77
2022/03/29 01:58:58;;;;;;;;;;;7.30;99.90;;;;;;5074204;28;20003;-77
2022/03/29 02:01:23;;;;;;;;;;;7.20;99.90;;;;;;5057473;28;20024;-77
2022/03/29 02:03:49;;;;;;;;;;;7.20;99.90;;;;;;5074267;28;20007;-76
2022/03/29 02:06:15;;;;;;;;;;;7.20;99.90;;;;;;5073871;28;19966;-76
2022/03/29 02:08:40;;;;;;;;;;;7.20;99.90;;;;;;5062010;28;20286;-76
2022/03/29 02:11:07;;;;;;;;;;;7.20;99.90;;;;;;5067777;28;19959;-76
2022/03/29 02:13:33;;;;;;;;;;;7.20;99.90;;;;;;5073856;28;19921;-76
2022/03/29 02:15:58;;;;;;;;;;;7.20;99.90;;;;;;5073560;28;19920;-76
2022/03/29 02:18:24;;;;;;;;;;;7.20;99.90;;;;;;5056176;28;19929;-76
2022/03/29 02:20:49;;;;;;;;;;;7.10;99.90;;;;;;5073427;28;20003;-76
2022/03/29 02:23:15;;;;;;;;;;;7.10;99.90;;;;;;5073930;28;19928;-76
2022/03/29 02:25:42;;;;;;;;;;;7.00;99.90;;;;;;5073391;28;19921;-76
2022/03/29 02:28:08;;;;;;;;;;;7.10;99.90;;;;;;5066711;28;19920;-76
2022/03/29 02:30:35;;;;;;;;;;;7.10;99.90;;;;;;5054229;28;20301;-76
2022/03/29 02:33:05;;;;;;;;;;;7.00;99.90;;;;;;5056943;28;19994;-76
2022/03/29 02:35:30;;;;;;;;;;;7.00;99.90;;;;;;5073425;28;19950;-76
2022/03/29 02:37:56;;;;;;;;;;;6.90;99.90;;;;;;5068940;28;19932;-76
2022/03/29 02:40:22;;;;;;;;;;;6.90;99.90;;;;;;5064057;28;19999;-76
2022/03/29 02:42:48;;;;;;;;;;;6.90;99.90;;;;;;5073561;28;19920;-76
2022/03/29 02:45:15;;;;;;;;;;;6.90;99.90;;;;;;5073245;28;19928;-76
2022/03/29 02:47:44;;;;;;;;;;;6.90;99.90;;;;;;5072066;28;20019;-76
2022/03/29 02:50:10;;;;;;;;;;;6.90;99.90;;;;;;5073204;28;20010;-76
2022/03/29 02:52:50;;;;;;;;;;;6.90;99.90;;;;;;5073489;28;19928;-76
2022/03/29 02:55:16;;;;;;;;;;;6.80;99.90;;;;;;5073118;28;19924;-76
2022/03/29 02:57:43;;;;;;;;;;;6.90;99.90;;;;;;5054154;28;19968;-76
2022/03/29 03:00:09;;;;;;;;;;;6.90;99.90;;;;;;5072806;28;19921;-76
2022/03/29 03:02:34;;;;;;;;;;;6.90;99.90;;;;;;5072905;28;19925;-76
2022/03/29 03:05:01;;;;;;;;;;;6.90;99.90;;;;;;5073157;28;19927;-76
2022/03/29 03:07:27;;;;;;;;;;;6.90;99.90;;;;;;5068648;28;19927;-76
2022/03/29 03:09:52;;;;;;;;;;;6.80;99.90;;;;;;5064465;28;19974;-76
2022/03/29 03:12:18;;;;;;;;;;;6.80;99.90;;;;;;5072791;28;19924;-76
2022/03/29 03:14:43;;;;;;;;;;;6.80;99.90;;;;;;5072770;28;20063;-76
2022/03/29 03:17:09;;;;;;;;;;;6.80;99.90;;;;;;5071465;28;19924;-76
2022/03/29 03:19:34;;;;;;;;;;;6.80;99.90;;;;;;5072480;28;19920;-76
2022/03/29 03:22:00;;;;;;;;;;;6.80;99.90;;;;;;5072591;28;20454;-76
2022/03/29 03:24:25;;;;;;;;;;;6.80;99.90;;;;;;5072592;28;19920;-76
2022/03/29 03:26:51;;;;;;;;;;;6.90;99.90;;;;;;5051446;28;19921;-76
2022/03/29 03:29:16;;;;;;;;;;;6.80;99.90;;;;;;5067649;28;20016;-76
2022/03/29 03:31:42;;;;;;;;;;;6.80;99.90;;;;;;5072243;28;19921;-76
2022/03/29 03:34:07;;;;;;;;;;;6.80;99.90;;;;;;5072618;28;20345;-76
2022/03/29 03:36:33;;;;;;;;;;;6.80;99.90;;;;;;5071743;28;20059;-76
2022/03/29 03:38:58;;;;;;;;;;;6.70;99.90;;;;;;5063423;28;19927;-76
2022/03/29 03:41:24;;;;;;;;;;;6.70;99.90;;;;;;5072144;28;19931;-76
2022/03/29 03:43:49;;;;;;;;;;;6.70;99.90;;;;;;5072205;28;19974;-76
2022/03/29 03:46:15;;;;;;;;;;;6.70;99.90;;;;;;5047295;28;19921;-76
2022/03/29 03:48:40;;;;;;;;;;;6.70;99.90;;;;;;5069875;28;19921;-76
2022/03/29 03:51:06;;;;;;;;;;;6.70;99.90;;;;;;5071764;28;19920;-76
2022/03/29 03:53:32;;;;;;;;;;;6.80;99.90;;;;;;5071698;28;19973;-76
2022/03/29 03:55:57;;;;;;;;;;;6.80;99.90;;;;;;5071999;28;20336;-76
2022/03/29 03:58:22;;;;;;;;;;;6.80;99.90;;;;;;5062833;28;19968;-76
2022/03/29 04:00:48;;;;;;;;;;;6.80;99.90;;;;;;5071186;28;19921;-76
2022/03/29 04:03:13;;;;;;;;;;;6.80;99.90;;;;;;5055160;28;20335;-76
2022/03/29 04:05:39;;;;;;;;;;;6.80;99.90;;;;;;5071842;28;19921;-76
2022/03/29 04:08:05;;;;;;;;;;;6.80;99.90;;;;;;5046350;28;20378;-76
2022/03/29 04:10:33;;;;;;;;;;;6.80;99.90;;;;;;5071255;28;20003;-76
2022/03/29 04:12:58;;;;;;;;;;;6.80;99.90;;;;;;5071869;28;19924;-76
2022/03/29 04:15:24;;;;;;;;;;;6.80;99.90;;;;;;5054796;28;20383;-76
2022/03/29 04:17:49;;;;;;;;;;;6.80;99.90;;;;;;5070075;28;19924;-76
2022/03/29 04:20:15;;;;;;;;;;;6.70;99.90;;;;;;5071400;28;19950;-76
2022/03/29 04:22:40;;;;;;;;;;;6.80;99.90;;;;;;5071189;28;19924;-76
2022/03/29 04:25:06;;;;;;;;;;;6.80;99.90;;;;;;5071317;28;19927;-76
2022/03/29 04:27:31;;;;;;;;;;;6.70;99.90;;;;;;5061949;28;19956;-76
2022/03/29 04:29:57;;;;;;;;;;;6.70;99.90;;;;;;5096568;22;19921;-79
2022/03/29 04:32:23;;;;;;;;;;;6.70;99.90;;;;;;5092968;28;19959;-79
2022/03/29 04:34:49;;;;;;;;;;;6.60;99.90;;;;;;5092907;28;19993;-79
2022/03/29 04:37:15;;;;;;;;;;;6.60;99.90;;;;;;5084909;28;19928;-79
2022/03/29 04:39:40;;;;;;;;;;;6.70;99.90;;;;;;5092226;28;19920;-79
2022/03/29 04:42:06;;;;;;;;;;;6.70;99.90;;;;;;5093613;28;19921;-79
2022/03/29 04:44:34;;;;;;;;;;;6.70;99.90;;;;;;5089761;28;19920;-79
2022/03/29 04:47:00;;;;;;;;;;;6.70;99.90;;;;;;5078429;28;19920;-79
2022/03/29 04:49:41;;;;;;;;;;;6.70;99.90;;;;;;5083316;28;19968;-79
2022/03/29 04:52:18;;;;;;;;;;;6.80;99.90;;;;;;5075305;28;19920;-79
2022/03/29 04:54:58;;;;;;;;;;;6.80;99.90;;;;;;5072248;28;19927;-78
2022/03/29 05:01:12;;;;;;;;;;;6.80;99.90;;;;;;5066363;28;20012;-78
2022/03/29 05:03:38;;;;;;;;;;;6.70;99.90;;;;;;5091062;28;19924;-78
2022/03/29 05:06:03;;;;;;;;;;;6.70;99.90;;;;;;5079309;28;20144;-78
2022/03/29 05:08:29;;;;;;;;;;;6.80;99.90;;;;;;5065093;28;20014;-78
2022/03/29 05:10:55;;;;;;;;;;;6.70;99.90;;;;;;5073388;28;19924;-79
2022/03/29 05:13:23;;;;;;;;;;;6.70;99.90;;;;;;5059522;28;19924;-79
2022/03/29 05:15:49;;;;;;;;;;;6.90;99.90;;;;;;5074983;28;19943;-79
2022/03/29 05:18:14;;;;;;;;;;;6.80;99.90;;;;;;5074467;28;20298;-79
2022/03/29 05:20:42;;;;;;;;;;;6.80;99.90;;;;;;5073664;28;19971;-79
2022/03/29 05:23:08;;;;;;;;;;;6.80;99.90;;;;;;5074078;28;20011;-79
2022/03/29 05:25:36;;;;;;;;;;;6.80;99.90;;;;;;5074490;28;19970;-79
2022/03/29 05:28:02;;;;;;;;;;;6.80;99.90;;;;;;5074668;28;20358;-79
2022/03/29 05:30:30;;;;;;;;;;;6.80;99.90;;;;;;5074506;28;20018;-79
2022/03/29 05:33:27;;;;;;;;;;;6.80;99.90;;;;;;5074330;28;20016;-79
2022/03/29 05:35:56;;;;;;;;;;;6.80;99.90;;;;;;5057451;28;19920;-79
2022/03/29 05:38:25;;;;;;;;;;;6.70;99.90;;;;;;5073880;28;20421;-79
2022/03/29 05:40:56;;;;;;;;;;;6.80;99.90;;;;;;5073657;28;19920;-79
2022/03/29 05:43:22;;;;;;;;;;;6.80;99.90;;;;;;5073360;28;19927;-79
2022/03/29 05:48:59;;;;;;;;;;;7.00;99.90;;;;;;5073295;28;19928;-79
2022/03/29 05:51:26;;;;;;;;;;;7.00;99.90;;;;;;5072530;28;20459;-79
2022/03/29 05:53:52;;;;;;;;;;;7.00;99.90;;;;;;5056201;28;19920;-79
2022/03/29 05:56:18;;;;;;;;;;;7.00;99.90;;;;;;5073310;28;20016;-79
2022/03/29 05:58:44;;;;;;;;;;;7.10;99.90;;;;;;5072913;28;19970;-79
2022/03/29 06:01:09;;;;;;;;;;;7.10;99.90;;;;;;5073033;28;19920;-79
2022/03/29 06:03:35;;;;;;;;;;;7.10;99.90;;;;;;5072297;28;19921;-79
2022/03/29 06:06:00;;;;;;;;;;;7.10;99.90;;;;;;5072510;28;19941;-79
2022/03/29 06:08:26;;;;;;;;;;;7.10;99.90;;;;;;5072393;28;19920;-79
2022/03/29 06:10:53;;;;;;;;;;;7.20;99.90;;;;;;5072247;28;19947;-79
2022/03/29 06:13:21;;;;;;;;;;;7.10;99.90;;;;;;5072796;28;20347;-79
2022/03/29 06:15:47;;;;;;;;;;;7.20;99.90;;;;;;5072597;28;20019;-79
2022/03/29 06:18:15;;;;;;;;;;;7.30;99.90;;;;;;5072494;28;19967;-79
2022/03/29 06:20:40;;;;;;;;;;;7.30;99.90;;;;;;5071797;28;19920;-79
2022/03/29 06:23:11;;;;;;;;;;;7.40;99.90;;;;;;5071572;28;19921;-79
2022/03/29 06:25:39;;;;;;;;;;;7.40;99.90;;;;;;5056176;28;19925;-79
2022/03/29 06:28:05;;;;;;;;;;;7.40;99.90;;;;;;5072734;28;20330;-79
2022/03/29 06:30:30;;;;;;;;;;;7.40;99.90;;;;;;5073047;28;19927;-79
2022/03/29 06:32:59;;;;;;;;;;;7.50;99.90;;;;;;5057897;28;19920;-79
2022/03/29 06:35:26;;;;;;;;;;;7.60;99.90;;;;;;5077167;28;20354;-80
2022/03/29 06:37:52;;;;;;;;;;;7.50;99.90;;;;;;5076676;28;19962;-80
2022/03/29 06:40:18;;;;;;;;;;;7.50;99.90;;;;;;5077220;28;19920;-80
2022/03/29 06:42:44;;;;;;;;;;;7.50;99.90;;;;;;5077170;28;19920;-80
2022/03/29 06:45:10;;;;;;;;;;;7.50;99.90;;;;;;5076778;28;20341;-79
2022/03/29 06:47:39;;;;;;;;;;;7.50;99.90;;;;;;5076705;28;19999;-79
2022/03/29 06:50:08;;;;;;;;;;;7.60;99.90;;;;;;5060017;28;19963;-79
2022/03/29 06:52:38;;;;;;;;;;;7.60;99.90;;;;;;5076934;28;19920;-80
2022/03/29 06:55:06;;;;;;;;;;;7.60;99.90;;;;;;5074106;28;19920;-78
2022/03/29 06:57:35;;;;;;;;;;;7.60;99.90;;;;;;5072628;28;19931;-78
2022/03/29 07:00:03;;;;;;;;;;;7.70;99.90;;;;;;5072810;28;19974;-78
2022/03/29 07:02:28;;;;;;;;;;;7.80;99.90;;;;;;5072908;28;20029;-78
2022/03/29 07:04:55;;;;;;;;;;;7.70;99.90;;;;;;5072772;28;19963;-78
2022/03/29 07:07:21;;;;;;;;;;;7.80;99.90;;;;;;5072472;28;19927;-78
2022/03/29 07:12:45;;;;;;;;;;;7.90;99.90;;;;;;5072655;28;19920;-78
2022/03/29 07:15:10;;;;;;;;;;;8.10;99.90;;;;;;5072491;28;19921;-78
2022/03/29 07:17:36;;;;;;;;;;;8.00;99.90;;;;;;5071978;28;19947;-78
2022/03/29 07:20:01;;;;;;;;;;;8.00;99.90;;;;;;5072511;28;19920;-78
2022/03/29 07:22:27;;;;;;;;;;;8.10;99.90;;;;;;5072433;28;20394;-78
2022/03/29 07:24:55;;;;;;;;;;;8.10;99.90;;;;;;5072398;28;19924;-78
2022/03/29 07:27:21;;;;;;;;;;;8.20;99.90;;;;;;5072340;28;20034;-78
2022/03/29 07:29:46;;;;;;;;;;;8.20;99.90;;;;;;5072136;28;20379;-78
2022/03/29 07:32:12;;;;;;;;;;;8.20;99.90;;;;;;5071986;28;19924;-78
2022/03/29 07:34:38;;;;;;;;;;;8.20;99.90;;;;;;5057467;28;19990;-78
2022/03/29 07:37:05;;;;;;;;;;;8.30;99.90;;;;;;5074128;28;20386;-78
2022/03/29 07:39:30;;;;;;;;;;;8.30;99.90;;;;;;5074481;28;20405;-78
2022/03/29 07:41:56;;;;;;;;;;;8.30;99.90;;;;;;5074515;28;19935;-78
2022/03/29 07:44:22;;;;;;;;;;;8.30;99.90;;;;;;5073298;28;19920;-78
2022/03/29 07:46:50;;;;;;;;;;;8.30;99.90;;;;;;5074499;28;20015;-78
2022/03/29 07:49:30;;;;;;;;;;;8.40;99.90;;;;;;5073734;28;19960;-78
2022/03/29 07:51:59;;;;;;;;;;;8.30;99.90;;;;;;5056205;28;19928;-78
2022/03/29 07:54:24;;;;;;;;;;;8.20;99.90;;;;;;5072194;28;19928;-78
2022/03/29 07:56:50;;;;;;;;;;;8.20;99.90;;;;;;5071877;28;19924;-78
2022/03/29 07:59:15;;;;;;;;;;;8.20;99.90;;;;;;5072281;28;19924;-78
2022/03/29 08:01:41;;;;;;;;;;;8.40;99.90;;;;;;5072334;28;20366;-79
2022/03/29 08:04:08;;;;;;;;;;;8.40;99.90;;;;;;5071781;28;19928;-78
2022/03/29 08:06:34;;;;;;;;;;;8.50;99.90;;;;;;5071717;28;20400;-78
2022/03/29 08:08:59;;;;;;;;;;;8.60;99.90;;;;;;5055959;28;19974;-78
2022/03/29 08:11:25;;;;;;;;;;;8.60;99.90;;;;;;5071526;28;19925;-78
2022/03/29 08:13:56;;;;;;;;;;;8.60;99.90;;;;;;5071595;28;19924;-78
2022/03/29 08:16:22;;;;;;;;;;;8.70;99.90;;;;;;5071636;28;19986;-78
2022/03/29 08:18:55;;;;;;;;;;;8.70;99.90;;;;;;5070995;28;20390;-78
2022/03/29 08:24:04;;;;;;;;;;;8.70;99.90;;;;;;5071310;28;19924;-78
2022/03/29 08:26:33;;;;;;;;;;;8.70;99.90;;;;;;5071305;28;19920;-78
2022/03/29 08:28:58;;;;;;;;;;;8.70;99.90;;;;;;5071191;28;20282;-78
2022/03/29 08:31:24;;;;;;;;;;;8.70;99.90;;;;;;5070750;28;19925;-78
2022/03/29 08:33:52;;;;;;;;;;;8.80;99.90;;;;;;5071112;28;19929;-78
2022/03/29 08:36:21;;;;;;;;;;;8.80;99.90;;;;;;5071120;28;19948;-78
2022/03/29 08:38:58;;;;;;;;;;;8.80;99.90;;;;;;5056023;28;19927;-78
2022/03/29 08:41:25;;;;;;;;;;;8.70;99.90;;;;;;5070877;28;19960;-78
2022/03/29 08:43:52;;;;;;;;;;;8.80;99.90;;;;;;5070916;28;20011;-78
2022/03/29 08:46:18;;;;;;;;;;;8.80;99.90;;;;;;5070379;28;19920;-78
2022/03/29 08:48:44;;;;;;;;;;;8.90;99.90;;;;;;5070846;28;19924;-78
2022/03/29 08:51:10;;;;;;;;;;;9.00;99.90;;;;;;5070783;28;19921;-78
2022/03/29 08:53:36;;;;;;;;;;;9.00;99.90;;;;;;5070815;28;19935;-78
2022/03/29 08:56:04;;;;;;;;;;;9.00;99.90;;;;;;5070753;28;20195;-78
2022/03/29 08:58:30;;;;;;;;;;;9.00;99.90;;;;;;5070797;28;20371;-78
2022/03/29 09:01:00;;;;;;;;;;;9.00;99.90;;;;;;5053840;28;19939;-78
2022/03/29 09:03:29;;;;;;;;;;;9.10;99.90;;;;;;5070636;28;20042;-78
2022/03/29 09:06:07;;;;;;;;;;;9.10;99.90;;;;;;5070391;28;19946;-78
2022/03/29 09:08:45;;;;;;;;;;;9.20;99.90;;;;;;5070550;28;19987;-78
2022/03/29 09:11:12;;;;;;;;;;;9.20;99.90;;;;;;5070485;28;19920;-78
2022/03/29 09:13:46;;;;;;;;;;;9.30;99.90;;;;;;5070809;28;20022;-79
2022/03/29 09:16:28;;;;;;;;;;;9.40;99.90;;;;;;5070033;28;20409;-79
2022/03/29 09:18:55;;;;;;;;;;;9.40;99.90;;;;;;5070322;28;19952;-79
2022/03/29 09:21:20;;;;;;;;;;;9.40;99.90;;;;;;5070708;28;20393;-79
2022/03/29 09:24:22;;;;;;;;;;;9.40;99.90;;;;;;5070661;28;20007;-79
2022/03/29 09:26:49;;;;;;;;;;;9.40;99.90;;;;;;5032397;28;20117;-79
2022/03/29 09:29:20;;;;;;;;;;;9.40;99.90;;;;;;5062307;28;19931;-79
2022/03/29 09:32:09;;;;;;;;;;;9.40;99.90;;;;;;5054610;28;20001;-79
2022/03/29 09:34:35;;;;;;;;;;;9.40;99.90;;;;;;5053050;28;19973;-79
2022/03/29 09:37:09;;;;;;;;;;;9.50;99.90;;;;;;5070442;28;19928;-79
2022/03/29 09:39:36;;;;;;;;;;;9.50;99.90;;;;;;5070071;28;19925;-79
2022/03/29 09:42:03;;;;;;;;;;;9.70;99.90;;;;;;5070089;28;19920;-79
2022/03/29 09:44:59;;;;;;;;;;;9.80;99.90;;;;;;5055374;28;20395;-79
2022/03/29 09:47:26;;;;;;;;;;;10.00;99.90;;;;;;5029432;28;19986;-79
2022/03/29 09:50:01;;;;;;;;;;;10.20;99.90;;;;;;5050548;28;20439;-79
2022/03/29 09:52:27;;;;;;;;;;;10.30;99.90;;;;;;5050541;28;19921;-79
2022/03/29 09:55:04;;;;;;;;;;;10.30;99.90;;;;;;5050648;28;19921;-79
2022/03/29 09:57:36;;;;;;;;;;;10.40;99.90;;;;;;5058987;28;20375;-79
2022/03/29 10:00:03;;;;;;;;;;;10.40;99.90;;;;;;5070326;28;19928;-79
2022/03/29 10:02:33;;;;;;;;;;;10.40;99.90;;;;;;5070659;28;19921;-79
2022/03/29 10:04:58;;;;;;;;;;;10.40;99.90;;;;;;5071081;28;19920;-79
2022/03/29 10:07:24;;;;;;;;;;;10.30;99.90;;;;;;5071910;28;19920;-79
2022/03/29 10:09:49;;;;;;;;;;;10.40;99.90;;;;;;5076613;28;19927;-79
2022/03/29 10:12:16;;;;;;;;;;;10.60;99.90;;;;;;5076863;28;19969;-79
2022/03/29 10:14:43;;;;;;;;;;;10.80;99.90;;;;;;5075380;28;19932;-79
2022/03/29 10:17:09;;;;;;;;;;;10.90;99.90;;;;;;5075446;28;19931;-80
2022/03/29 10:19:35;;;;;;;;;;;11.00;99.90;;;;;;5076405;28;20435;-79
2022/03/29 10:22:00;;;;;;;;;;;11.20;99.90;;;;;;5061505;28;19921;-79
2022/03/29 10:24:27;;;;;;;;;;;11.70;99.90;;;;;;5078437;28;19973;-80
2022/03/29 10:26:53;;;;;;;;;;;12.00;99.90;;;;;;5078408;28;20292;-80
2022/03/29 10:29:19;;;;;;;;;;;12.00;99.90;;;;;;5062294;28;20270;-80
2022/03/29 10:31:49;;;;;;;;;;;11.90;99.90;;;;;;5077881;28;19924;-79
2022/03/29 10:34:19;;;;;;;;;;;12.00;99.90;;;;;;5079022;28;19928;-79
2022/03/29 10:37:09;;;;;;;;;;;11.90;99.90;;;;;;5077295;28;20507;-79
2022/03/29 10:39:41;;;;;;;;;;;11.80;99.90;;;;;;5060891;28;19924;-80
2022/03/29 10:42:22;;;;;;;;;;;11.50;99.90;;;;;;5077057;28;20314;-79
2022/03/29 10:45:05;;;;;;;;;;;11.50;99.90;;;;;;5076604;28;19927;-79
2022/03/29 10:47:31;;;;;;;;;;;11.80;99.90;;;;;;5077562;28;19927;-80
2022/03/29 10:49:58;;;;;;;;;;;12.20;99.90;;;;;;5077480;28;19993;-80
2022/03/29 10:52:23;;;;;;;;;;;12.50;99.90;;;;;;5062551;28;20259;-80
2022/03/29 10:54:49;;;;;;;;;;;12.70;99.90;;;;;;5079837;28;19981;-80
2022/03/29 10:57:20;;;;;;;;;;;12.70;99.90;;;;;;5077582;28;19934;-80
2022/03/29 10:59:50;;;;;;;;;;;12.60;99.90;;;;;;5077996;28;20054;-80
2022/03/29 11:02:18;;;;;;;;;;;12.40;99.90;;;;;;5078503;28;19959;-80
2022/03/29 11:05:03;;;;;;;;;;;12.40;99.90;;;;;;5078741;28;19946;-80
2022/03/29 11:07:30;;;;;;;;;;;12.40;99.90;;;;;;5080856;28;19972;-80
2022/03/29 11:10:14;;;;;;;;;;;12.30;99.90;;;;;;5082081;28;19921;-80
2022/03/29 11:12:49;;;;;;;;;;;12.30;99.90;;;;;;5077289;28;19920;-78
2022/03/29 11:15:23;;;;;;;;;;;12.40;99.90;;;;;;5073017;28;19932;-78
2022/03/29 11:17:49;;;;;;;;;;;12.30;99.90;;;;;;5072363;28;20298;-78
2022/03/29 11:20:33;;;;;;;;;;;12.20;99.90;;;;;;5071183;28;19927;-78
2022/03/29 11:23:00;;;;;;;;;;;12.20;99.90;;;;;;5060773;28;20333;-78
2022/03/29 11:25:25;;;;;;;;;;;12.20;99.90;;;;;;5052342;28;19925;-78
2022/03/29 11:27:51;;;;;;;;;;;12.20;99.90;;;;;;5052887;28;19921;-78
2022/03/29 11:30:17;;;;;;;;;;;12.40;99.90;;;;;;5053979;28;19935;-78
2022/03/29 11:32:43;;;;;;;;;;;12.80;99.90;;;;;;5052974;28;19948;-78
2022/03/29 11:35:11;;;;;;;;;;;13.00;99.90;;;;;;5054808;28;19928;-79
2022/03/29 11:37:40;;;;;;;;;;;13.40;99.90;;;;;;5056204;28;19979;-78
2022/03/29 11:40:16;;;;;;;;;;;13.40;99.90;;;;;;5073111;28;19971;-78
2022/03/29 11:42:49;;;;;;;;;;;13.40;99.90;;;;;;5076714;28;20003;-80
2022/03/29 11:45:19;;;;;;;;;;;13.20;99.90;;;;;;5064371;28;20023;-78
2022/03/29 11:48:14;;;;;;;;;;;12.90;99.90;;;;;;5073566;28;19966;-79
2022/03/29 11:50:43;;;;;;;;;;;13.00;99.90;;;;;;5072568;28;19920;-79
2022/03/29 11:53:27;;;;;;;;;;;13.10;99.90;;;;;;5074332;28;20231;-79
2022/03/29 11:55:54;;;;;;;;;;;13.40;99.90;;;;;;5073134;28;19981;-78
2022/03/29 11:58:27;;;;;;;;;;;13.20;99.70;;;;;;5072686;28;19929;-78
2022/03/29 12:01:12;;;;;;;;;;;12.90;99.90;;;;;;5072950;28;20301;-78
2022/03/29 12:03:45;;;;;;;;;;;12.90;99.90;;;;;;5073205;28;19956;-79
2022/03/29 12:06:14;;;;;;;;;;;13.10;99.90;;;;;;5073522;28;19986;-79
2022/03/29 12:08:47;;;;;;;;;;;13.30;99.90;;;;;;5072759;28;20377;-79
2022/03/29 12:11:13;;;;;;;;;;;13.40;99.90;;;;;;5072310;28;20456;-79
2022/03/29 12:13:38;;;;;;;;;;;13.00;99.90;;;;;;5072467;28;19920;-79
2022/03/29 12:16:23;;;;;;;;;;;12.90;99.90;;;;;;5072927;28;20378;-79
2022/03/29 12:18:49;;;;;;;;;;;12.90;99.90;;;;;;5073211;28;19986;-79
2022/03/29 12:21:16;;;;;;;;;;;13.30;99.90;;;;;;5076624;28;19928;-80
2022/03/29 12:23:42;;;;;;;;;;;13.70;99.90;;;;;;5079599;28;20463;-80
2022/03/29 12:26:11;;;;;;;;;;;14.00;94.10;;;;;;5080367;28;20010;-80
2022/03/29 12:28:37;;;;;;;;;;;13.70;99.30;;;;;;5079756;28;19920;-80
2022/03/29 12:31:08;;;;;;;;;;;13.80;99.90;;;;;;5078795;28;19942;-80
2022/03/29 12:33:34;;;;;;;;;;;14.20;99.90;;;;;;5079699;28;20019;-80
2022/03/29 12:36:10;;;;;;;;;;;13.80;97.80;;;;;;5079541;28;19942;-80
2022/03/29 12:38:39;;;;;;;;;;;13.50;99.90;;;;;;5062136;28;20398;-80
2022/03/29 12:41:04;;;;;;;;;;;13.20;99.90;;;;;;5077499;28;19929;-80
2022/03/29 12:43:33;;;;;;;;;;;13.30;99.90;;;;;;5080683;28;19931;-80
2022/03/29 12:45:58;;;;;;;;;;;13.70;99.90;;;;;;5079588;28;19956;-81
2022/03/29 12:48:25;;;;;;;;;;;14.10;99.90;;;;;;5080927;28;20310;-81
2022/03/29 12:50:51;;;;;;;;;;;14.40;98.40;;;;;;5064415;28;19921;-80
2022/03/29 12:53:16;;;;;;;;;;;14.30;93.20;;;;;;5080144;28;20008;-80
2022/03/29 12:55:55;;;;;;;;;;;14.00;95.10;;;;;;5079007;28;20297;-81
2022/03/29 12:58:29;;;;;;;;;;;13.90;97.50;;;;;;5079568;28;19977;-81
2022/03/29 13:00:55;;;;;;;;;;;14.40;93.50;;;;;;5079275;28;20390;-80
2022/03/29 13:03:20;;;;;;;;;;;14.40;95.90;;;;;;5073594;28;20023;-81
2022/03/29 13:05:47;;;;;;;;;;;14.70;97.80;;;;;;5086111;28;19920;-81
2022/03/29 13:08:18;;;;;;;;;;;15.20;92.40;;;;;;5095833;28;19926;-81
2022/03/29 13:10:45;;;;;;;;;;;15.30;84.20;;;;;;5083869;28;20271;-81
2022/03/29 13:13:17;;;;;;;;;;;15.30;92.60;;;;;;5100778;28;19921;-81
2022/03/29 13:15:46;;;;;;;;;;;15.40;91.20;;;;;;5099270;28;19927;-81
2022/03/29 13:18:28;;;;;;;;;;;15.10;75.70;;;;;;5098807;28;19924;-81
2022/03/29 13:21:14;;;;;;;;;;;14.70;87.60;;;;;;5085206;28;19920;-81
2022/03/29 13:23:53;;;;;;;;;;;14.50;89.50;;;;;;5078116;28;19921;-81
2022/03/29 13:26:20;;;;;;;;;;;14.30;93.00;;;;;;5090008;28;19925;-80
2022/03/29 13:28:47;;;;;;;;;;;14.30;87.80;;;;;;5100274;28;19928;-80
2022/03/29 13:31:16;;;;;;;;;;;14.20;90.50;;;;;;5099672;28;20375;-80
2022/03/29 13:33:47;;;;;;;;;;;13.80;90.50;;;;;;5099486;28;19992;-80
2022/03/29 13:36:14;;;;;;;;;;;13.60;96.40;;;;;;5079786;28;19931;-80
2022/03/29 13:38:40;;;;;;;;;;;13.90;95.10;;;;;;5063044;28;19920;-81
2022/03/29 13:41:06;;;;;;;;;;;14.10;96.30;;;;;;5086868;28;19921;-80
2022/03/29 13:43:33;;;;;;;;;;;14.30;92.50;;;;;;5096482;28;19920;-81
2022/03/29 13:45:59;;;;;;;;;;;14.80;84.50;;;;;;5099252;28;20352;-80
2022/03/29 13:48:25;;;;;;;;;;;15.30;70.10;;;;;;5097540;28;19924;-81
2022/03/29 13:50:50;;;;;;;;;;;15.40;69.10;;;;;;5088260;28;19970;-81
2022/03/29 13:53:20;;;;;;;;;;;15.50;74.20;;;;;;5080120;28;19921;-81
2022/03/29 13:55:46;;;;;;;;;;;15.70;69.30;;;;;;5080156;28;19921;-81
2022/03/29 13:58:12;;;;;;;;;;;15.30;67.90;;;;;;5063921;28;19932;-81
2022/03/29 14:00:37;;;;;;;;;;;15.30;71.60;;;;;;5079356;28;19921;-80
2022/03/29 14:03:03;;;;;;;;;;;15.50;67.50;;;;;;5084486;28;19977;-80
2022/03/29 14:05:29;;;;;;;;;;;15.70;62.50;;;;;;5090234;28;19942;-80
2022/03/29 14:07:55;;;;;;;;;;;15.60;63.30;;;;;;5099072;28;19924;-80
2022/03/29 14:10:21;;;;;;;;;;;15.80;62.70;;;;;;5081471;28;20289;-81
2022/03/29 14:12:46;;;;;;;;;;;16.00;58.40;;;;;;5094105;28;19927;-79
2022/03/29 14:15:12;;;;;;;;;;;16.00;58.40;;;;;;5079021;28;19920;-79
2022/03/29 14:17:38;;;;;;;;;;;16.20;57.90;;;;;;5071713;28;20344;-79
2022/03/29 14:20:04;;;;;;;;;;;16.30;57.20;;;;;;5069155;28;19921;-79
2022/03/29 14:22:32;;;;;;;;;;;16.20;56.80;;;;;;5053487;28;19997;-79
2022/03/29 14:24:58;;;;;;;;;;;16.40;57.20;;;;;;5053281;28;20019;-79
2022/03/29 14:27:24;;;;;;;;;;;16.10;57.10;;;;;;5075435;28;19970;-79
2022/03/29 14:29:50;;;;;;;;;;;15.90;57.20;;;;;;5086548;28;19921;-79
2022/03/29 14:32:15;;;;;;;;;;;16.10;56.90;;;;;;5068418;28;20367;-78
2022/03/29 14:34:41;;;;;;;;;;;16.40;57.00;;;;;;5079288;28;20019;-78
2022/03/29 14:37:06;;;;;;;;;;;16.30;55.30;;;;;;5083300;28;19928;-78
2022/03/29 14:39:32;;;;;;;;;;;15.80;58.10;;;;;;5072976;28;20366;-78
2022/03/29 14:41:58;;;;;;;;;;;15.80;57.90;;;;;;5082123;28;19957;-79
2022/03/29 14:44:23;;;;;;;;;;;16.20;55.40;;;;;;5064488;28;19920;-78
2022/03/29 14:46:49;;;;;;;;;;;16.00;55.20;;;;;;5089592;28;19931;-78